createdAt,value
2018-04-10T00:00:13.831Z,14.60
2018-04-10T00:02:42.190Z,14.60
2018-04-10T00:05:10.926Z,14.50
2018-04-10T00:07:38.450Z,14.50
2018-04-10T00:10:06.720Z,14.50
2018-04-10T00:12:35.001Z,14.50
2018-04-10T00:15:03.297Z,14.50
2018-04-10T00:17:30.822Z,14.40
2018-04-10T00:19:59.123Z,14.40
2018-04-10T00:22:27.401Z,14.40
2018-04-10T00:24:54.921Z,14.30
2018-04-10T00:27:22.504Z,14.30
2018-04-10T00:29:50.773Z,14.20
2018-04-10T00:32:19.052Z,14.20
2018-04-10T00:34:47.330Z,14.20
2018-04-10T00:37:15.608Z,14.20
2018-04-10T00:39:43.928Z,14.10
2018-04-10T00:42:11.472Z,14.10
2018-04-10T00:44:39.154Z,14.10
2018-04-10T00:47:07.286Z,13.90
2018-04-10T00:49:35.571Z,13.90
2018-04-10T00:52:03.089Z,13.80
2018-04-10T00:54:30.610Z,13.80
2018-04-10T00:56:58.213Z,13.80
2018-04-10T00:59:26.522Z,13.60
2018-04-10T01:01:54.046Z,13.50
2018-04-10T01:04:21.551Z,13.50
2018-04-10T01:06:49.077Z,13.40
2018-04-10T01:09:17.372Z,13.50
2018-04-10T01:11:44.914Z,13.40
2018-04-10T01:14:13.198Z,13.30
2018-04-10T01:16:41.482Z,13.30
2018-04-10T01:19:09.013Z,13.30
2018-04-10T01:21:36.533Z,13.30
2018-04-10T01:24:04.062Z,13.30
2018-04-10T01:26:31.599Z,13.30
2018-04-10T01:28:59.889Z,13.20
2018-04-10T01:31:28.297Z,13.30
2018-04-10T01:33:56.008Z,13.20
2018-04-10T01:36:23.554Z,13.20
2018-04-10T01:38:51.084Z,13.20
2018-04-10T01:41:18.728Z,13.20
2018-04-10T01:43:46.225Z,13.00
2018-04-10T01:46:13.756Z,13.00
2018-04-10T01:48:41.286Z,12.90
2018-04-10T01:51:09.567Z,12.90
2018-04-10T01:53:38.011Z,13.00
2018-04-10T01:56:05.517Z,12.90
2018-04-10T01:58:33.027Z,13.00
2018-04-10T02:01:00.543Z,13.00
2018-04-10T02:03:28.069Z,13.00
2018-04-10T02:05:56.499Z,12.90
2018-04-10T02:08:24.003Z,12.90
2018-04-10T02:10:52.285Z,12.90
2018-04-10T02:13:20.702Z,12.90
2018-04-10T02:15:48.220Z,12.90
2018-04-10T02:18:16.502Z,12.90
2018-04-10T02:20:44.790Z,12.90
2018-04-10T02:23:13.069Z,13.00
2018-04-10T02:25:40.666Z,13.00
2018-04-10T02:28:08.178Z,13.00
2018-04-10T02:30:36.457Z,13.10
2018-04-10T02:33:04.906Z,13.00
2018-04-10T02:35:32.521Z,13.00
2018-04-10T02:38:00.039Z,13.00
2018-04-10T02:40:28.339Z,13.00
2018-04-10T02:42:55.934Z,13.00
2018-04-10T02:45:23.882Z,12.90
2018-04-10T02:47:51.402Z,12.80
2018-04-10T02:50:19.703Z,12.80
2018-04-10T02:52:48.142Z,12.90
2018-04-10T02:55:15.650Z,12.80
2018-04-10T03:07:19.230Z,13.00
2018-04-10T03:09:46.740Z,12.90
2018-04-10T03:12:15.032Z,12.90
2018-04-10T03:14:43.401Z,12.90
2018-04-10T03:17:12.271Z,13.00
2018-04-10T03:19:39.965Z,13.00
2018-04-10T03:22:08.254Z,13.00
2018-04-10T03:24:35.885Z,13.10
2018-04-10T03:27:03.400Z,13.10
2018-04-10T03:29:31.732Z,13.10
2018-04-10T03:32:00.115Z,13.10
2018-04-10T03:34:27.636Z,13.10
2018-04-10T03:36:55.143Z,13.10
2018-04-10T03:39:23.362Z,13.10
2018-04-10T03:41:51.699Z,13.10
2018-04-10T03:44:19.241Z,13.10
2018-04-10T03:46:47.626Z,13.10
2018-04-10T03:49:16.001Z,13.10
2018-04-10T03:51:44.311Z,13.00
2018-04-10T03:54:11.817Z,13.00
2018-04-10T03:56:39.352Z,13.00
2018-04-10T03:59:06.903Z,12.80
2018-04-10T04:01:34.442Z,12.70
2018-04-10T04:04:01.954Z,12.70
2018-04-10T04:06:29.474Z,12.70
2018-04-10T04:08:56.994Z,12.70
2018-04-10T04:11:24.618Z,12.60
2018-04-10T04:13:52.962Z,12.40
2018-04-10T04:16:32.425Z,12.30
2018-04-10T04:19:12.146Z,12.10
2018-04-10T04:21:51.584Z,12.00
2018-04-10T04:24:19.087Z,12.00
2018-04-10T04:26:46.602Z,12.20
2018-04-10T04:29:14.298Z,12.30
2018-04-10T04:31:43.328Z,12.40
2018-04-10T04:34:10.962Z,12.40
2018-04-10T04:36:38.588Z,12.20
2018-04-10T04:39:06.293Z,12.00
2018-04-10T04:41:34.682Z,11.60
2018-04-10T04:44:02.986Z,11.60
2018-04-10T04:46:30.516Z,11.60
2018-04-10T04:48:58.994Z,11.70
2018-04-10T04:51:27.329Z,11.80
2018-04-10T04:53:54.998Z,11.80
2018-04-10T04:56:22.521Z,11.90
2018-04-10T04:58:50.063Z,11.90
2018-04-10T05:01:17.608Z,11.80
2018-04-10T05:03:45.900Z,12.00
2018-04-10T05:06:14.168Z,12.00
2018-04-10T05:08:41.736Z,12.00
2018-04-10T05:11:09.260Z,12.10
2018-04-10T05:13:36.787Z,12.10
2018-04-10T05:16:04.307Z,12.00
2018-04-10T05:18:32.622Z,12.10
2018-04-10T05:21:00.160Z,12.10
2018-04-10T05:23:27.842Z,12.20
2018-04-10T05:25:55.369Z,12.30
2018-04-10T05:28:23.671Z,12.30
2018-04-10T05:30:51.191Z,12.30
2018-04-10T05:33:19.512Z,12.30
2018-04-10T05:35:47.059Z,12.30
2018-04-10T05:38:15.662Z,12.50
2018-04-10T05:40:43.201Z,12.50
2018-04-10T05:43:10.754Z,12.60
2018-04-10T05:45:38.284Z,12.50
2018-04-10T05:48:06.565Z,12.50
2018-04-10T05:50:34.855Z,12.50
2018-04-10T05:53:03.158Z,12.60
2018-04-10T05:55:30.880Z,12.60
2018-04-10T05:57:59.162Z,12.80
2018-04-10T06:00:27.671Z,12.80
2018-04-10T06:02:55.176Z,12.80
2018-04-10T06:05:22.858Z,12.90
2018-04-10T06:07:51.315Z,13.10
2018-04-10T06:10:18.910Z,13.00
2018-04-10T06:13:21.947Z,13.20
2018-04-10T06:15:49.562Z,13.20
2018-04-10T06:18:17.841Z,13.50
2018-04-10T06:20:46.245Z,13.60
2018-04-10T06:23:13.750Z,13.60
2018-04-10T06:25:41.377Z,13.60
2018-04-10T06:28:08.926Z,13.70
2018-04-10T06:30:36.570Z,13.70
2018-04-10T06:33:04.103Z,13.70
2018-04-10T06:35:32.405Z,13.80
2018-04-10T06:37:59.926Z,13.80
2018-04-10T06:40:27.446Z,13.90
2018-04-10T06:42:54.973Z,14.10
2018-04-10T06:45:23.249Z,14.20
2018-04-10T06:47:51.539Z,14.30
2018-04-10T06:50:19.053Z,14.30
2018-04-10T06:52:46.630Z,14.40
2018-04-10T06:55:14.980Z,14.60
2018-04-10T06:57:42.582Z,14.60
2018-04-10T07:00:10.156Z,14.70
2018-04-10T07:02:38.150Z,14.80
2018-04-10T07:05:05.666Z,14.90
2018-04-10T07:07:33.932Z,15.00
2018-04-10T07:10:02.222Z,15.20
2018-04-10T07:12:29.739Z,15.10
2018-04-10T07:14:57.431Z,15.10
2018-04-10T07:17:25.927Z,15.20
2018-04-10T07:19:53.471Z,15.20
2018-04-10T07:22:21.754Z,15.10
2018-04-10T07:24:50.033Z,15.10
2018-04-10T07:27:18.317Z,15.20
2018-04-10T07:29:45.997Z,15.20
2018-04-10T07:32:13.519Z,15.40
2018-04-10T07:34:41.824Z,15.60
2018-04-10T07:37:09.347Z,15.60
2018-04-10T07:39:37.699Z,15.60
2018-04-10T07:42:05.913Z,15.60
2018-04-10T07:44:34.378Z,16.00
2018-04-10T07:47:01.934Z,16.00
2018-04-10T07:49:29.460Z,16.10
2018-04-10T07:51:56.981Z,16.10
2018-04-10T07:54:25.258Z,16.50
2018-04-10T07:56:53.755Z,16.60
2018-04-10T07:59:21.297Z,16.50
2018-04-10T08:01:49.552Z,16.80
2018-04-10T08:04:17.922Z,16.80
2018-04-10T08:06:45.465Z,16.90
2018-04-10T08:09:12.963Z,17.10
2018-04-10T08:11:40.538Z,17.10
2018-04-10T08:14:08.061Z,16.90
2018-04-10T08:16:35.613Z,16.60
2018-04-10T08:19:03.149Z,16.80
2018-04-10T08:21:30.677Z,17.00
2018-04-10T08:23:58.214Z,16.70
2018-04-10T08:26:26.614Z,16.80
2018-04-10T08:28:54.288Z,16.90
2018-04-10T08:31:21.847Z,17.60
2018-04-10T08:33:49.360Z,17.50
2018-04-10T08:36:16.977Z,17.40
2018-04-10T08:38:44.518Z,17.40
2018-04-10T08:41:12.028Z,17.80
2018-04-10T08:43:39.576Z,17.90
2018-04-10T08:46:07.144Z,18.40
2018-04-10T08:48:34.758Z,18.70
2018-04-10T08:51:02.499Z,19.00
2018-04-10T08:53:30.772Z,18.70
2018-04-10T08:55:59.093Z,19.30
2018-04-10T08:58:26.614Z,19.30
2018-04-10T09:00:55.006Z,19.60
2018-04-10T09:03:23.456Z,19.80
2018-04-10T09:05:51.989Z,20.20
2018-04-10T09:08:19.499Z,20.20
2018-04-10T09:10:47.778Z,20.50
2018-04-10T09:13:16.078Z,20.50
2018-04-10T09:15:43.627Z,20.50
2018-04-10T09:18:11.935Z,20.00
2018-04-10T09:20:39.447Z,20.00
2018-04-10T09:23:07.056Z,20.40
2018-04-10T09:25:34.707Z,19.90
2018-04-10T09:28:03.220Z,19.80
2018-04-10T09:30:31.510Z,19.70
2018-04-10T09:32:59.027Z,19.60
2018-04-10T09:35:26.674Z,19.50
2018-04-10T09:37:54.268Z,19.40
2018-04-10T09:40:21.807Z,19.70
2018-04-10T09:42:49.331Z,20.00
2018-04-10T09:45:17.622Z,19.60
2018-04-10T09:47:45.169Z,19.60
2018-04-10T09:50:13.568Z,19.70
2018-04-10T09:52:41.113Z,19.70
2018-04-10T09:55:09.423Z,20.30
2018-04-10T09:57:36.935Z,20.20
2018-04-10T10:00:05.221Z,20.80
2018-04-10T10:02:33.524Z,20.20
2018-04-10T10:05:01.293Z,20.10
2018-04-10T10:07:28.846Z,20.10
2018-04-10T10:09:56.423Z,20.20
2018-04-10T10:12:23.938Z,20.00
2018-04-10T10:14:52.263Z,20.50
2018-04-10T10:17:19.794Z,20.50
2018-04-10T10:19:47.314Z,20.80
2018-04-10T10:22:14.865Z,20.70
2018-04-10T10:24:42.372Z,20.50
2018-04-10T10:27:10.602Z,20.70
2018-04-10T10:29:38.112Z,20.80
2018-04-10T10:32:05.652Z,20.90
2018-04-10T10:34:33.924Z,21.30
2018-04-10T10:37:02.242Z,21.40
2018-04-10T10:39:29.769Z,21.40
2018-04-10T10:41:57.361Z,21.60
2018-04-10T10:44:24.881Z,21.80
2018-04-10T10:46:53.180Z,21.50
2018-04-10T10:49:20.726Z,21.50
2018-04-10T10:51:48.249Z,21.10
2018-04-10T10:54:15.771Z,21.60
2018-04-10T10:56:43.300Z,21.70
2018-04-10T10:59:10.836Z,21.50
2018-04-10T11:01:39.300Z,21.40
2018-04-10T11:04:06.877Z,21.40
2018-04-10T11:06:34.452Z,21.40
2018-04-10T11:09:02.817Z,21.10
2018-04-10T11:11:31.109Z,21.00
2018-04-10T11:13:59.572Z,20.90
2018-04-10T11:16:27.847Z,20.90
2018-04-10T11:18:56.157Z,21.10
2018-04-10T11:21:23.670Z,21.00
2018-04-10T11:23:51.213Z,21.10
2018-04-10T11:26:18.727Z,21.50
2018-04-10T11:28:46.264Z,21.70
2018-04-10T11:31:14.550Z,21.50
2018-04-10T11:33:42.834Z,22.10
2018-04-10T11:36:11.287Z,21.80
2018-04-10T11:38:38.850Z,21.80
2018-04-10T11:41:06.368Z,21.60
2018-04-10T11:43:33.981Z,21.60
2018-04-10T11:46:02.260Z,21.60
2018-04-10T11:48:30.562Z,21.90
2018-04-10T11:50:58.134Z,21.90
2018-04-10T11:53:25.688Z,22.20
2018-04-10T11:55:53.317Z,21.80
2018-04-10T11:58:21.660Z,21.40
2018-04-10T12:00:49.195Z,21.40
2018-04-10T12:03:17.592Z,21.90
2018-04-10T12:05:45.277Z,21.90
2018-04-10T12:08:13.089Z,22.50
2018-04-10T12:10:41.354Z,22.50
2018-04-10T12:13:08.944Z,22.40
2018-04-10T12:15:36.650Z,22.50
2018-04-10T12:18:05.039Z,22.00
2018-04-10T12:20:33.528Z,22.10
2018-04-10T12:23:01.821Z,22.30
2018-04-10T12:25:29.350Z,22.30
2018-04-10T12:27:57.640Z,21.40
2018-04-10T12:30:25.192Z,21.40
2018-04-10T12:32:53.488Z,21.80
2018-04-10T12:35:21.819Z,21.90
2018-04-10T12:37:49.396Z,21.90
2018-04-10T12:40:18.454Z,21.90
2018-04-10T12:42:45.992Z,21.90
2018-04-10T12:45:13.652Z,21.90
2018-04-10T12:47:41.194Z,21.80
2018-04-10T12:50:08.717Z,21.30
2018-04-10T12:52:36.289Z,21.30
2018-04-10T12:55:04.782Z,21.50
2018-04-10T12:57:33.073Z,21.50
2018-04-10T13:00:00.598Z,21.50
2018-04-10T13:02:28.934Z,21.40
2018-04-10T13:04:56.481Z,21.40
2018-04-10T13:07:24.036Z,21.70
2018-04-10T13:09:51.560Z,21.80
2018-04-10T13:12:19.849Z,21.80
2018-04-10T13:14:48.172Z,22.00
2018-04-10T13:17:15.682Z,22.00
2018-04-10T13:19:43.989Z,22.00
2018-04-10T13:22:11.540Z,22.00
2018-04-10T13:24:39.136Z,22.30
2018-04-10T13:27:06.670Z,22.20
2018-04-10T13:29:34.249Z,22.10
2018-04-10T13:32:01.778Z,22.30
2018-04-10T13:34:29.354Z,22.20
2018-04-10T13:36:57.069Z,22.00
2018-04-10T13:39:25.536Z,21.60
2018-04-10T13:41:53.197Z,21.70
2018-04-10T13:44:20.928Z,21.70
2018-04-10T13:46:48.458Z,21.70
2018-04-10T13:49:15.981Z,21.80
2018-04-10T13:51:43.627Z,21.80
2018-04-10T13:54:11.157Z,21.50
2018-04-10T13:56:39.286Z,21.10
2018-04-10T13:59:07.603Z,21.20
2018-04-10T14:01:35.230Z,21.10
2018-04-10T14:04:03.552Z,21.20
2018-04-10T14:06:31.101Z,21.20
2018-04-10T14:08:58.641Z,21.30
2018-04-10T14:11:26.158Z,21.30
2018-04-10T14:13:53.696Z,21.20
2018-04-10T14:16:21.244Z,21.30
2018-04-10T14:18:48.794Z,21.40
2018-04-10T14:21:16.776Z,21.30
2018-04-10T14:23:44.317Z,21.20
2018-04-10T14:26:11.833Z,21.10
2018-04-10T14:28:39.442Z,21.00
2018-04-10T14:31:06.962Z,21.20
2018-04-10T14:33:35.265Z,20.90
2018-04-10T14:36:02.841Z,20.90
2018-04-10T14:38:30.357Z,21.00
2018-04-10T14:40:58.770Z,20.90
2018-04-10T14:43:26.286Z,20.90
2018-04-10T14:45:53.830Z,20.90
2018-04-10T14:48:21.427Z,21.10
2018-04-10T14:50:49.741Z,21.40
2018-04-10T14:53:17.274Z,21.30
2018-04-10T14:55:44.793Z,21.20
2018-04-10T14:58:12.339Z,21.30
2018-04-10T15:00:39.882Z,21.20
2018-04-10T15:03:07.413Z,21.20
2018-04-10T15:05:34.985Z,21.10
2018-04-10T15:08:02.709Z,20.60
2018-04-10T15:10:31.058Z,20.30
2018-04-10T15:12:58.587Z,20.30
2018-04-10T15:15:26.091Z,19.80
2018-04-10T15:17:53.629Z,19.40
2018-04-10T15:20:21.130Z,19.10
2018-04-10T15:22:49.459Z,18.00
2018-04-10T15:25:17.058Z,18.00
2018-04-10T15:27:45.480Z,17.60
2018-04-10T15:30:13.109Z,17.60
2018-04-10T15:32:41.410Z,17.30
2018-04-10T15:35:09.070Z,17.30
2018-04-10T15:37:36.826Z,16.80
2018-04-10T15:40:04.371Z,16.50
2018-04-10T15:42:32.653Z,16.30
2018-04-10T15:45:01.021Z,16.10
2018-04-10T15:47:29.358Z,15.90
2018-04-10T15:49:56.951Z,15.80
2018-04-10T15:52:25.238Z,15.20
2018-04-10T15:54:54.551Z,15.00
2018-04-10T15:57:22.085Z,15.00
2018-04-10T15:59:49.632Z,15.00
2018-04-10T16:02:17.207Z,15.10
2018-04-10T16:04:45.655Z,14.50
2018-04-10T16:07:13.232Z,14.50
2018-04-10T16:09:41.659Z,14.10
2018-04-10T16:12:10.752Z,14.00
2018-04-10T16:14:38.270Z,14.00
2018-04-10T16:17:06.779Z,13.80
2018-04-10T16:19:35.050Z,13.80
2018-04-10T16:22:03.418Z,13.80
2018-04-10T16:24:31.698Z,13.80
2018-04-10T16:26:59.985Z,13.60
2018-04-10T16:29:28.307Z,13.70
2018-04-10T16:32:50.249Z,13.70
2018-04-10T16:35:17.943Z,13.70
2018-04-10T16:37:46.281Z,13.60
2018-04-10T16:40:13.858Z,13.60
2018-04-10T16:42:41.426Z,13.60
2018-04-10T16:45:09.240Z,13.50
2018-04-10T16:47:36.769Z,13.50
2018-04-10T16:50:05.080Z,13.00
2018-04-10T16:52:32.605Z,12.90
2018-04-10T16:55:00.907Z,13.20
2018-04-10T16:57:28.409Z,13.20
2018-04-10T16:59:56.854Z,13.10
2018-04-10T17:02:24.373Z,13.10
2018-04-10T17:05:08.097Z,13.20
2018-04-10T17:07:57.917Z,13.30
2018-04-10T17:10:25.562Z,12.90
2018-04-10T17:12:53.898Z,12.30
2018-04-10T17:15:22.491Z,12.30
2018-04-10T17:17:50.369Z,12.50
2018-04-10T17:20:17.905Z,12.30
2018-04-10T17:22:45.462Z,12.20
2018-04-10T17:25:13.005Z,11.90
2018-04-10T17:27:40.517Z,11.70
2018-04-10T17:30:09.638Z,11.30
2018-04-10T17:32:37.165Z,11.30
2018-04-10T17:35:04.687Z,11.30
2018-04-10T17:37:32.220Z,11.30
2018-04-10T17:40:00.216Z,11.40
2018-04-10T17:42:27.754Z,11.20
2018-04-10T17:44:55.423Z,11.10
2018-04-10T17:47:22.985Z,11.10
2018-04-10T17:49:50.543Z,11.10
2018-04-10T17:52:18.127Z,11.10
2018-04-10T17:54:45.745Z,11.10
2018-04-10T17:57:13.346Z,11.00
2018-04-10T17:59:40.872Z,10.90
2018-04-10T18:02:08.400Z,10.70
2018-04-10T18:04:36.734Z,10.60
2018-04-10T18:07:04.257Z,10.60
2018-04-10T18:09:31.794Z,10.70
2018-04-10T18:12:00.157Z,10.80
2018-04-10T18:14:27.697Z,10.70
2018-04-10T18:16:55.262Z,10.70
2018-04-10T18:19:22.798Z,10.70
2018-04-10T18:21:50.385Z,10.70
2018-04-10T18:24:17.918Z,10.70
2018-04-10T18:26:45.482Z,10.80
2018-04-10T18:29:13.057Z,10.60
2018-04-10T18:31:40.642Z,10.60
2018-04-10T18:34:08.204Z,10.60
2018-04-10T18:36:36.551Z,10.80
2018-04-10T18:39:04.192Z,10.80
2018-04-10T18:41:31.800Z,10.70
2018-04-10T18:44:00.163Z,10.70
2018-04-10T18:46:27.763Z,10.70
2018-04-10T18:48:55.371Z,10.60
2018-04-10T18:51:23.022Z,10.60
2018-04-10T18:53:50.555Z,10.70
2018-04-10T18:56:18.099Z,10.80
2018-04-10T18:58:45.672Z,10.80
2018-04-10T19:01:13.206Z,10.80
2018-04-10T19:03:41.532Z,10.80
2018-04-10T19:06:09.122Z,10.80
2018-04-10T19:08:36.667Z,10.80
2018-04-10T19:11:04.305Z,10.90
2018-04-10T19:13:31.877Z,10.80
2018-04-10T19:15:59.448Z,10.90
2018-04-10T19:18:26.999Z,11.00
2018-04-10T19:20:54.555Z,11.10
2018-04-10T19:23:22.087Z,11.10
2018-04-10T19:25:49.699Z,10.90
2018-04-10T19:28:17.265Z,10.70
2018-04-10T19:30:44.793Z,10.60
2018-04-10T19:33:12.356Z,10.50
2018-04-10T19:35:39.893Z,10.60
2018-04-10T19:38:08.622Z,10.70
2018-04-10T19:40:36.177Z,10.60
2018-04-10T19:43:05.043Z,10.40
2018-04-10T19:45:32.651Z,10.30
2018-04-10T19:48:00.535Z,10.20
2018-04-10T19:50:28.862Z,10.20
2018-04-10T19:52:57.087Z,10.20
2018-04-10T19:55:25.373Z,9.90
2018-04-10T19:57:53.525Z,9.90
2018-04-10T20:00:21.803Z,9.80
2018-04-10T20:02:50.108Z,9.90
2018-04-10T20:05:17.650Z,9.80
2018-04-10T20:07:45.961Z,9.70
2018-04-10T20:10:13.598Z,9.70
2018-04-10T20:12:41.118Z,9.80
2018-04-10T20:15:09.141Z,10.10
2018-04-10T20:17:36.653Z,10.30
2018-04-10T20:20:04.252Z,10.30
2018-04-10T20:22:31.792Z,10.30
2018-04-10T20:25:00.220Z,10.30
2018-04-10T20:27:27.758Z,10.20
2018-04-10T20:29:55.319Z,10.40
2018-04-10T20:32:22.907Z,10.10
2018-04-10T20:34:51.783Z,10.10
2018-04-10T20:37:19.329Z,10.10
2018-04-10T20:39:46.915Z,10.20
2018-04-10T20:42:14.444Z,10.40
2018-04-10T20:44:41.970Z,10.50
2018-04-10T20:47:09.540Z,10.60
2018-04-10T20:49:37.865Z,10.60
2018-04-10T20:52:05.385Z,10.60
2018-04-10T20:54:32.913Z,10.70
2018-04-10T20:57:00.533Z,10.70
2018-04-10T20:59:28.877Z,10.70
2018-04-10T21:01:56.407Z,10.70
2018-04-10T21:04:23.929Z,10.70
2018-04-10T21:06:51.524Z,10.80
2018-04-10T21:09:19.058Z,10.80
2018-04-10T21:11:47.063Z,10.60
2018-04-10T21:14:14.574Z,10.60
2018-04-10T21:16:42.095Z,10.60
2018-04-10T21:19:10.414Z,10.30
2018-04-10T21:21:38.410Z,10.30
2018-04-10T21:24:05.944Z,10.40
2018-04-10T21:26:33.532Z,10.30
2018-04-10T21:29:01.064Z,10.40
2018-04-10T21:31:28.573Z,10.50
2018-04-10T21:33:56.904Z,10.40
2018-04-10T21:36:24.449Z,10.30
2018-04-10T21:38:51.971Z,10.20
2018-04-10T21:41:20.252Z,10.30
2018-04-10T21:43:48.562Z,10.40
2018-04-10T21:46:16.116Z,10.40
2018-04-10T21:48:43.638Z,10.50
2018-04-10T21:51:11.948Z,10.60
2018-04-10T21:53:39.524Z,10.60
2018-04-10T21:56:07.070Z,10.60
2018-04-10T21:58:34.594Z,10.50
2018-04-10T22:01:02.905Z,10.40
2018-04-10T22:03:30.541Z,10.40
2018-04-10T22:05:58.828Z,10.30
2018-04-10T22:08:26.383Z,10.30
2018-04-10T22:10:54.766Z,10.20
2018-04-10T22:13:22.290Z,10.30
2018-04-10T22:15:49.840Z,10.20
2018-04-10T22:18:17.365Z,10.10
2018-04-10T22:20:44.941Z,10.00
2018-04-10T22:23:12.605Z,9.80
2018-04-10T22:25:41.110Z,9.60
2018-04-10T22:28:09.121Z,9.50
2018-04-10T22:30:36.670Z,9.50
2018-04-10T22:33:04.946Z,9.40
2018-04-10T22:35:36.363Z,9.40
2018-04-10T22:38:03.933Z,9.50
2018-04-10T22:40:31.438Z,9.50
2018-04-10T22:42:58.970Z,9.60
2018-04-10T22:45:26.657Z,9.60
2018-04-10T22:47:54.170Z,9.60
2018-04-10T22:50:21.680Z,9.60
2018-04-10T22:52:49.200Z,9.60
2018-04-10T22:55:16.781Z,9.50
2018-04-10T22:57:44.426Z,9.50
2018-04-10T23:00:12.747Z,9.50
2018-04-10T23:02:40.270Z,9.60
2018-04-10T23:05:07.859Z,9.50
2018-04-10T23:07:35.376Z,9.50
2018-04-10T23:10:02.918Z,9.40
2018-04-10T23:12:31.793Z,9.30
2018-04-10T23:14:59.300Z,9.30
2018-04-10T23:17:26.820Z,9.30
2018-04-10T23:19:54.343Z,9.40
2018-04-10T23:25:58.958Z,9.50
2018-04-10T23:28:27.252Z,9.40
2018-04-10T23:30:55.113Z,9.40
2018-04-10T23:33:22.634Z,9.50
2018-04-10T23:35:50.148Z,9.60
2018-04-10T23:38:17.657Z,9.70
2018-04-10T23:40:45.180Z,9.70
2018-04-10T23:43:12.701Z,9.70
2018-04-10T23:45:40.999Z,9.60
2018-04-10T23:48:08.529Z,9.60
2018-04-10T23:50:36.198Z,9.60
2018-04-10T23:53:04.479Z,9.70
2018-04-10T23:55:32.782Z,9.70
2018-04-10T23:58:00.297Z,9.70
